Gaysville, Vermont
Current Conditions -  °F | °C
As of 10:55 AM on Saturday 25 Oct 2014 (Local Time) from KRUT Reporting Station
Clear Clear  
Wind Chill: 48°   Ceiling: Unl
Heat Index: 48°   Visibility: 10mi
Dew Point: 43°   Wind: 3mph
Humidity: 82%   Direction: 250°WSW
Pressure: 29.76"   Gusts: NA
Location:  43.78°N, 72.7°W
Report Text: KRUT 251455Z 25003KT 10SM CLR 09/06 A2976 RMK AO1 57014
Loading
Personal Weather Stations






























Interactive Weather Map
Tropical Storm Tracking
New forecast layout! Learn more

10-Day Weather Forecast

Advertisements
Track Severe Weather on mobile